RYR33KN EPMO-LZIB
Flight info
| Callsign | RYR33KN |
|---|---|
| Flight time | N/A |
| Altitude | 34000 |
| Route | EVINA DCT LIGDI DCT SKARY DCT NIDOK M985 NIT |
| Aircraft | B738/M-SDE1E2E3FGIJ1LRWY/SB1 |
Departure
| Time | N/A |
|---|---|
| Airport | Warsaw Modlin Airport (EPMO) |
Arrival
| Time | 2026-05-01 07:50 |
|---|---|
| Airport | M. R. Štefánik Airport (LZIB) |
| Time | Latitude | Longitude | Altitude | Speed | Heading |
|---|---|---|---|---|---|
| 2026-05-01 07:23 | 49.68732 | 19.09428 | 31601 ft | 446 kts | 193° |
| 2026-05-01 07:23 | 49.62849 | 19.06537 | 30899 ft | 442 kts | 193° |
| 2026-05-01 07:24 | 49.59924 | 19.05117 | 30543 ft | 439 kts | 193° |
| 2026-05-01 07:24 | 49.57017 | 19.03712 | 30165 ft | 437 kts | 193° |
| 2026-05-01 07:24 | 49.54124 | 19.02320 | 29761 ft | 434 kts | 193° |
| 2026-05-01 07:24 | 49.51254 | 19.00941 | 29398 ft | 430 kts | 193° |
| 2026-05-01 07:25 | 49.48411 | 18.99576 | 29022 ft | 427 kts | 193° |
| 2026-05-01 07:25 | 49.45589 | 18.98217 | 28672 ft | 424 kts | 194° |
| 2026-05-01 07:25 | 49.42857 | 18.96534 | 28399 ft | 422 kts | 204° |
| 2026-05-01 07:25 | 49.40312 | 18.94476 | 28136 ft | 418 kts | 205° |
| 2026-05-01 07:26 | 49.37771 | 18.92346 | 27807 ft | 415 kts | 206° |
| 2026-05-01 07:26 | 49.35251 | 18.90217 | 27450 ft | 413 kts | 206° |
| 2026-05-01 07:26 | 49.32739 | 18.88107 | 27092 ft | 411 kts | 206° |
| 2026-05-01 07:26 | 49.30233 | 18.86023 | 26753 ft | 409 kts | 206° |
| 2026-05-01 07:27 | 49.27733 | 18.83963 | 26397 ft | 407 kts | 205° |
| 2026-05-01 07:27 | 49.25243 | 18.81919 | 26061 ft | 405 kts | 205° |
| 2026-05-01 07:27 | 49.22760 | 18.79888 | 25706 ft | 404 kts | 205° |
| 2026-05-01 07:27 | 49.20287 | 18.77870 | 25369 ft | 402 kts | 205° |
| 2026-05-01 07:28 | 49.17820 | 18.75861 | 25024 ft | 401 kts | 205° |
| 2026-05-01 07:28 | 49.15360 | 18.73861 | 24667 ft | 401 kts | 205° |
| 2026-05-01 07:28 | 49.12903 | 18.71866 | 24326 ft | 399 kts | 205° |
| 2026-05-01 07:28 | 49.10451 | 18.69877 | 23965 ft | 399 kts | 205° |
| 2026-05-01 07:29 | 49.08007 | 18.67897 | 23567 ft | 397 kts | 205° |
| 2026-05-01 07:29 | 49.05571 | 18.65924 | 23188 ft | 395 kts | 205° |
| 2026-05-01 07:29 | 49.03149 | 18.63965 | 22826 ft | 393 kts | 205° |
| 2026-05-01 07:29 | 49.00739 | 18.62019 | 22480 ft | 391 kts | 205° |
| 2026-05-01 07:30 | 48.98349 | 18.60088 | 22143 ft | 389 kts | 205° |
| 2026-05-01 07:30 | 48.95964 | 18.58161 | 21798 ft | 387 kts | 205° |
| 2026-05-01 07:30 | 48.93586 | 18.56248 | 21452 ft | 386 kts | 205° |
| 2026-05-01 07:30 | 48.91221 | 18.54347 | 21124 ft | 383 kts | 205° |
| 2026-05-01 07:31 | 48.88869 | 18.52462 | 20782 ft | 381 kts | 205° |
| 2026-05-01 07:31 | 48.81889 | 18.46867 | 19784 ft | 375 kts | 205° |
| 2026-05-01 07:32 | 48.77287 | 18.43185 | 19125 ft | 373 kts | 206° |
| 2026-05-01 07:32 | 48.74997 | 18.41360 | 18783 ft | 370 kts | 206° |
| 2026-05-01 07:33 | 48.70480 | 18.37749 | 18071 ft | 365 kts | 205° |
| 2026-05-01 07:33 | 48.68240 | 18.35968 | 17727 ft | 363 kts | 205° |
| 2026-05-01 07:33 | 48.63794 | 18.32437 | 17047 ft | 359 kts | 205° |
| 2026-05-01 07:34 | 48.61592 | 18.30690 | 16717 ft | 356 kts | 205° |
| 2026-05-01 07:34 | 48.57227 | 18.27232 | 16078 ft | 352 kts | 206° |
| 2026-05-01 07:34 | 48.55063 | 18.25519 | 15765 ft | 350 kts | 206° |
| 2026-05-01 07:35 | 48.52911 | 18.23818 | 15444 ft | 349 kts | 206° |
| 2026-05-01 07:35 | 48.50764 | 18.22123 | 15129 ft | 347 kts | 205° |
| 2026-05-01 07:35 | 48.48627 | 18.20438 | 14810 ft | 346 kts | 205° |
| 2026-05-01 07:35 | 48.46499 | 18.18760 | 14496 ft | 345 kts | 206° |
| 2026-05-01 07:36 | 48.44378 | 18.17089 | 14169 ft | 344 kts | 206° |
| 2026-05-01 07:36 | 48.42264 | 18.15425 | 13817 ft | 342 kts | 206° |
| 2026-05-01 07:36 | 48.40160 | 18.13771 | 13494 ft | 340 kts | 206° |
| 2026-05-01 07:36 | 48.38071 | 18.12131 | 13170 ft | 338 kts | 206° |
| 2026-05-01 07:37 | 48.33934 | 18.08884 | 12548 ft | 334 kts | 206° |
| 2026-05-01 07:37 | 48.31882 | 18.07278 | 12244 ft | 331 kts | 206° |
| 2026-05-01 07:37 | 48.29845 | 18.05685 | 11949 ft | 329 kts | 206° |
| 2026-05-01 07:38 | 48.27874 | 18.03968 | 11741 ft | 324 kts | 213° |
| 2026-05-01 07:38 | 48.26056 | 18.02018 | 11508 ft | 320 kts | 216° |
| 2026-05-01 07:38 | 48.22443 | 17.98018 | 10755 ft | 323 kts | 216° |
| 2026-05-01 07:39 | 48.20639 | 17.96020 | 10355 ft | 322 kts | 216° |
| 2026-05-01 07:39 | 48.18858 | 17.94049 | 9952 ft | 315 kts | 216° |
| 2026-05-01 07:39 | 48.15412 | 17.90238 | 9377 ft | 307 kts | 216° |
| 2026-05-01 07:40 | 48.13698 | 17.88345 | 9072 ft | 305 kts | 216° |
| 2026-05-01 07:40 | 48.11993 | 17.86463 | 8776 ft | 303 kts | 216° |
| 2026-05-01 07:40 | 48.10304 | 17.84601 | 8521 ft | 300 kts | 216° |
| 2026-05-01 07:40 | 48.08626 | 17.82753 | 8245 ft | 298 kts | 216° |
| 2026-05-01 07:41 | 48.06963 | 17.80921 | 7965 ft | 296 kts | 216° |
| 2026-05-01 07:41 | 48.05312 | 17.79106 | 7715 ft | 293 kts | 216° |
| 2026-05-01 07:41 | 48.02045 | 17.75515 | 7227 ft | 288 kts | 216° |
| 2026-05-01 07:42 | 48.00454 | 17.73770 | 7123 ft | 281 kts | 216° |
| 2026-05-01 07:42 | 47.98898 | 17.72064 | 6988 ft | 274 kts | 216° |
| 2026-05-01 07:42 | 47.97548 | 17.70100 | 6586 ft | 274 kts | 242° |
| 2026-05-01 07:42 | 47.97006 | 17.67414 | 6060 ft | 270 kts | 266° |
| 2026-05-01 07:43 | 47.96911 | 17.64606 | 5459 ft | 275 kts | 272° |
| 2026-05-01 07:43 | 47.96887 | 17.61739 | 5114 ft | 276 kts | 272° |
| 2026-05-01 07:43 | 47.96844 | 17.56160 | 4852 ft | 262 kts | 272° |
| 2026-05-01 07:44 | 47.97608 | 17.51226 | 4655 ft | 232 kts | 311° |
| 2026-05-01 07:44 | 47.99709 | 17.48010 | 4409 ft | 201 kts | 322° |
| 2026-05-01 07:45 | 48.00704 | 17.46617 | 4179 ft | 193 kts | 320° |
| 2026-05-01 07:45 | 48.01642 | 17.45212 | 3992 ft | 190 kts | 319° |
| 2026-05-01 07:45 | 48.02562 | 17.43796 | 3807 ft | 190 kts | 318° |
| 2026-05-01 07:45 | 48.03482 | 17.42362 | 3606 ft | 192 kts | 318° |
| 2026-05-01 07:46 | 48.04398 | 17.40933 | 3418 ft | 189 kts | 317° |
| 2026-05-01 07:46 | 48.05304 | 17.39515 | 3204 ft | 187 kts | 317° |
| 2026-05-01 07:46 | 48.07123 | 17.36676 | 2928 ft | 192 kts | 317° |
| 2026-05-01 07:47 | 48.08044 | 17.35235 | 2665 ft | 189 kts | 317° |
| 2026-05-01 07:47 | 48.08924 | 17.33861 | 2430 ft | 177 kts | 317° |
| 2026-05-01 07:47 | 48.09759 | 17.32560 | 2198 ft | 169 kts | 317° |
| 2026-05-01 07:47 | 48.10531 | 17.31355 | 1949 ft | 153 kts | 316° |
| 2026-05-01 07:48 | 48.11889 | 17.29239 | 1564 ft | 135 kts | 316° |
| 2026-05-01 07:48 | 48.12534 | 17.28234 | 1382 ft | 134 kts | 315° |
| 2026-05-01 07:48 | 48.13187 | 17.27216 | 1208 ft | 135 kts | 316° |
| 2026-05-01 07:49 | 48.13836 | 17.26203 | 1012 ft | 134 kts | 316° |
| 2026-05-01 07:49 | 48.15174 | 17.24111 | 636 ft | 142 kts | 315° |
| 2026-05-01 07:49 | 48.15846 | 17.23067 | 463 ft | 136 kts | 316° |
| 2026-05-01 07:50 | 48.16461 | 17.22119 | 429 ft | 108 kts | 314° |
| 2026-05-01 07:50 | 48.16983 | 17.21309 | 429 ft | 32 kts | 314° |
| 2026-05-01 07:50 | 48.17094 | 17.21137 | 428 ft | 20 kts | 313° |
| 2026-05-01 07:51 | 48.17128 | 17.21022 | 421 ft | 12 kts | 240° |
| 2026-05-01 07:51 | 48.17071 | 17.20931 | 417 ft | 12 kts | 226° |
| 2026-05-01 07:51 | 48.17042 | 17.20851 | 425 ft | 7 kts | 290° |
| 2026-05-01 07:52 | 48.17114 | 17.20728 | 430 ft | 12 kts | 313° |
| 2026-05-01 07:52 | 48.17163 | 17.20634 | 425 ft | 11 kts | 290° |
| 2026-05-01 07:52 | 48.17139 | 17.20533 | 429 ft | 11 kts | 224° |
| 2026-05-01 07:53 | 48.17032 | 17.20378 | 434 ft | 10 kts | 225° |
| 2026-05-01 07:53 | 48.16981 | 17.20304 | 434 ft | 10 kts | 224° |
| 2026-05-01 07:53 | 48.16945 | 17.20244 | 425 ft | 3 kts | 256° |
| 2026-05-01 07:53 | 48.16960 | 17.20215 | 433 ft | 4 kts | 313° |
| 2026-05-01 07:54 | 48.16983 | 17.20179 | 440 ft | 0 kts | 314° |